createdAt,value
2022-09-18T00:02:34.006Z,25.75
2022-09-18T00:05:23.819Z,25.72
2022-09-18T00:08:12.303Z,25.72
2022-09-18T00:11:00.738Z,25.77
2022-09-18T00:13:49.550Z,25.76
2022-09-18T00:16:38.217Z,25.75
2022-09-18T00:19:26.755Z,25.73
2022-09-18T00:22:16.572Z,25.72
2022-09-18T00:25:05.501Z,25.70
2022-09-18T00:27:53.967Z,25.72
2022-09-18T00:30:42.418Z,25.73
2022-09-18T00:33:30.926Z,25.73
2022-09-18T00:36:20.142Z,25.72
2022-09-18T00:39:10.229Z,25.72
2022-09-18T00:41:58.737Z,25.71
2022-09-18T00:44:48.339Z,25.69
2022-09-18T00:47:38.938Z,25.69
2022-09-18T00:50:28.109Z,25.71
2022-09-18T00:53:16.943Z,25.70
2022-09-18T00:56:07.526Z,25.69
2022-09-18T00:58:56.065Z,25.72
2022-09-18T01:01:44.673Z,25.68
2022-09-18T01:04:33.613Z,25.69
2022-09-18T01:07:29.308Z,25.71
2022-09-18T01:10:31.989Z,25.73
2022-09-18T01:13:28.969Z,25.74
2022-09-18T01:16:21.325Z,25.72
2022-09-18T01:19:17.091Z,25.72
2022-09-18T01:22:17.885Z,25.74
2022-09-18T01:25:21.569Z,25.72
2022-09-18T01:28:18.700Z,25.74
2022-09-18T01:31:11.831Z,25.73
2022-09-18T01:34:02.615Z,25.71
2022-09-18T01:36:53.992Z,25.71
2022-09-18T01:39:44.883Z,25.69
2022-09-18T01:42:34.513Z,25.71
2022-09-18T01:45:27.969Z,25.70
2022-09-18T01:48:20.172Z,25.69
2022-09-18T01:51:11.664Z,25.67
2022-09-18T01:54:02.281Z,25.64
2022-09-18T01:56:54.910Z,25.64
2022-09-18T01:59:46.560Z,25.70
2022-09-18T02:02:39.123Z,25.66
2022-09-18T02:05:29.875Z,25.66
2022-09-18T02:08:22.113Z,25.64
2022-09-18T02:11:12.264Z,25.66
2022-09-18T02:14:05.617Z,25.64
2022-09-18T02:16:56.568Z,25.61
2022-09-18T02:19:49.202Z,25.62
2022-09-18T02:22:39.338Z,25.63
2022-09-18T02:25:31.559Z,25.62
2022-09-18T02:28:22.103Z,25.61
2022-09-18T02:31:12.906Z,25.63
2022-09-18T02:34:01.593Z,25.61
2022-09-18T02:37:03.046Z,25.62
2022-09-18T02:40:03.663Z,25.62
2022-09-18T02:43:00.375Z,25.62
2022-09-18T02:45:54.306Z,25.62
2022-09-18T02:48:48.951Z,25.59
2022-09-18T02:51:44.907Z,25.58
2022-09-18T02:54:40.507Z,25.58
2022-09-18T02:57:32.185Z,25.63
2022-09-18T03:00:20.932Z,25.63
2022-09-18T03:03:12.643Z,25.63
2022-09-18T03:06:03.110Z,25.63
2022-09-18T03:08:51.537Z,25.62
2022-09-18T03:11:41.540Z,25.59
2022-09-18T03:14:30.053Z,25.59
2022-09-18T03:17:20.597Z,25.63
2022-09-18T03:20:10.943Z,25.62
2022-09-18T03:22:59.408Z,25.59
2022-09-18T03:25:50.746Z,25.61
2022-09-18T03:28:47.975Z,25.64
2022-09-18T03:31:36.475Z,25.60
2022-09-18T03:34:25.007Z,25.62
2022-09-18T03:37:13.420Z,25.63
2022-09-18T03:40:01.962Z,25.66
2022-09-18T03:42:50.849Z,25.65
2022-09-18T03:45:40.712Z,25.66
2022-09-18T03:48:29.267Z,25.62
2022-09-18T03:51:18.057Z,25.61
2022-09-18T03:54:07.037Z,25.59
2022-09-18T03:56:55.604Z,25.62
2022-09-18T03:59:44.117Z,25.60
2022-09-18T04:02:34.033Z,25.61
2022-09-18T04:05:22.590Z,25.59
2022-09-18T04:08:11.129Z,25.59
2022-09-18T04:10:59.971Z,25.60
2022-09-18T04:13:48.675Z,25.61
2022-09-18T04:16:37.199Z,25.60
2022-09-18T04:19:29.585Z,25.58
2022-09-18T04:22:18.032Z,25.56
2022-09-18T04:25:07.670Z,25.62
2022-09-18T04:27:56.497Z,25.60
2022-09-18T04:30:44.949Z,25.60
2022-09-18T04:33:33.475Z,25.60
2022-09-18T04:36:25.764Z,25.62
2022-09-18T04:39:16.406Z,25.61
2022-09-18T04:42:05.423Z,25.61
2022-09-18T04:44:53.873Z,25.58
2022-09-18T04:47:42.366Z,25.62
2022-09-18T04:50:30.999Z,25.60
2022-09-18T04:53:20.969Z,25.57
2022-09-18T04:56:09.456Z,25.57
2022-09-18T04:58:57.879Z,25.54
2022-09-18T05:01:46.711Z,25.56
2022-09-18T05:04:35.244Z,25.54
2022-09-18T05:07:23.806Z,25.53
2022-09-18T05:10:13.697Z,25.51
2022-09-18T05:13:02.244Z,25.53
2022-09-18T05:15:50.769Z,25.54
2022-09-18T05:18:39.335Z,25.53
2022-09-18T05:21:27.818Z,25.53
2022-09-18T05:24:17.471Z,25.50
2022-09-18T05:27:07.731Z,25.51
2022-09-18T05:29:56.281Z,25.51
2022-09-18T05:32:44.804Z,25.50
2022-09-18T05:35:34.514Z,25.53
2022-09-18T05:38:25.375Z,25.51
2022-09-18T05:41:13.877Z,25.52
2022-09-18T05:44:04.337Z,25.52
2022-09-18T05:46:52.868Z,25.51
2022-09-18T05:49:43.633Z,25.51
2022-09-18T05:52:32.054Z,25.52
2022-09-18T05:55:21.108Z,25.54
2022-09-18T05:58:14.490Z,25.54
2022-09-18T06:01:04.723Z,25.54
2022-09-18T06:03:53.466Z,25.53
2022-09-18T06:06:42.030Z,25.55
2022-09-18T06:09:30.888Z,25.55
2022-09-18T06:12:19.587Z,25.57
2022-09-18T06:15:09.422Z,25.56
2022-09-18T06:18:00.178Z,25.57
2022-09-18T06:20:54.485Z,25.60
2022-09-18T06:23:43.505Z,25.59
2022-09-18T06:26:32.029Z,25.56
2022-09-18T06:29:20.496Z,25.56
2022-09-18T06:32:08.979Z,25.59
2022-09-18T06:35:00.795Z,25.58
2022-09-18T06:37:51.941Z,25.56
2022-09-18T06:40:40.488Z,25.58
2022-09-18T06:43:29.149Z,25.58
2022-09-18T06:46:17.731Z,25.53
2022-09-18T06:49:06.675Z,25.57
2022-09-18T06:51:56.720Z,25.56
2022-09-18T06:54:45.239Z,25.55
2022-09-18T06:57:33.794Z,25.55
2022-09-18T07:00:22.653Z,25.55
2022-09-18T07:03:11.704Z,25.55
2022-09-18T07:06:00.151Z,25.56
2022-09-18T07:08:50.144Z,25.55
2022-09-18T07:11:39.527Z,25.56
2022-09-18T07:14:28.037Z,25.57
2022-09-18T07:17:19.130Z,25.59
2022-09-18T07:20:09.958Z,25.59
2022-09-18T07:23:00.285Z,25.59
2022-09-18T07:25:50.100Z,25.58
2022-09-18T07:28:38.884Z,25.58
2022-09-18T07:31:27.473Z,25.58
2022-09-18T07:34:17.223Z,25.59
2022-09-18T07:37:05.742Z,25.59
2022-09-18T07:39:54.917Z,25.59
2022-09-18T07:42:44.963Z,25.56
2022-09-18T07:45:35.205Z,25.10
2022-09-18T07:48:23.860Z,24.75
2022-09-18T07:51:12.428Z,24.42
2022-09-18T07:54:01.128Z,24.55
2022-09-18T07:56:49.927Z,24.65
2022-09-18T07:59:44.386Z,24.76
2022-09-18T08:02:33.264Z,24.83
2022-09-18T08:05:24.791Z,24.91
2022-09-18T08:08:14.973Z,24.95
2022-09-18T08:11:03.565Z,25.02
2022-09-18T08:13:52.379Z,25.05
2022-09-18T08:16:42.485Z,25.10
2022-09-18T08:19:31.167Z,25.11
2022-09-18T08:22:19.611Z,25.12
2022-09-18T08:25:09.051Z,25.14
2022-09-18T08:28:01.696Z,25.16
2022-09-18T08:30:50.253Z,25.22
2022-09-18T08:33:40.167Z,25.23
2022-09-18T08:36:28.727Z,25.25
2022-09-18T08:39:17.257Z,25.26
2022-09-18T08:42:14.926Z,25.28
2022-09-18T08:45:09.094Z,25.31
2022-09-18T08:47:59.588Z,25.33
2022-09-18T08:50:57.804Z,25.35
2022-09-18T08:53:48.846Z,25.36
2022-09-18T08:56:37.625Z,25.35
2022-09-18T08:59:30.939Z,25.36
2022-09-18T09:02:30.288Z,25.40
2022-09-18T09:05:21.474Z,25.35
2022-09-18T09:08:25.816Z,25.39
2022-09-18T09:11:19.519Z,25.42
2022-09-18T09:14:23.680Z,25.40
2022-09-18T09:17:22.544Z,25.39
2022-09-18T09:20:22.689Z,25.41
2022-09-18T09:23:21.440Z,25.46
2022-09-18T09:26:13.549Z,25.12
2022-09-18T09:29:04.463Z,24.98
2022-09-18T09:31:57.037Z,24.68
2022-09-18T09:34:49.040Z,24.40
2022-09-18T09:37:41.175Z,24.17
2022-09-18T09:40:36.170Z,24.12
2022-09-18T09:43:30.214Z,24.10
2022-09-18T09:46:25.202Z,23.82
2022-09-18T09:49:15.765Z,23.71
2022-09-18T09:52:09.614Z,23.60
2022-09-18T09:55:00.853Z,23.61
2022-09-18T09:57:56.923Z,23.39
2022-09-18T10:00:48.356Z,23.22
2022-09-18T10:03:43.323Z,23.23
2022-09-18T10:06:38.676Z,23.14
2022-09-18T10:09:36.993Z,23.25
2022-09-18T10:12:32.590Z,23.25
2022-09-18T10:15:24.965Z,23.12
2022-09-18T10:18:16.573Z,23.03
2022-09-18T10:21:16.040Z,22.93
2022-09-18T10:24:15.139Z,22.92
2022-09-18T10:27:05.328Z,23.02
2022-09-18T10:29:55.055Z,22.88
2022-09-18T10:32:44.912Z,22.76
2022-09-18T10:35:42.761Z,22.76
2022-09-18T10:38:34.493Z,22.81
2022-09-18T10:41:30.132Z,22.84
2022-09-18T10:44:25.298Z,22.94
2022-09-18T10:47:22.671Z,22.83
2022-09-18T10:50:20.208Z,22.75
2022-09-18T10:53:25.712Z,22.71
2022-09-18T10:56:20.066Z,22.90
2022-09-18T10:59:16.403Z,23.06
2022-09-18T11:02:06.999Z,23.22
2022-09-18T11:04:57.962Z,23.34
2022-09-18T11:07:50.668Z,23.47
2022-09-18T11:10:39.242Z,23.61
2022-09-18T11:13:28.926Z,23.70
2022-09-18T11:16:24.704Z,23.78
2022-09-18T11:19:17.938Z,23.84
2022-09-18T11:22:08.367Z,23.90
2022-09-18T11:25:08.783Z,24.00
2022-09-18T11:27:58.941Z,24.08
2022-09-18T11:30:57.112Z,24.10
2022-09-18T11:33:49.139Z,24.11
2022-09-18T11:36:40.925Z,24.15
2022-09-18T11:39:35.188Z,24.20
2022-09-18T11:42:25.121Z,24.24
2022-09-18T11:45:24.234Z,24.27
2022-09-18T11:48:22.781Z,24.27
2022-09-18T11:51:15.057Z,24.35
2022-09-18T11:54:07.648Z,24.37
2022-09-18T11:57:00.472Z,24.40
2022-09-18T11:59:54.196Z,24.44
2022-09-18T12:02:47.440Z,24.49
2022-09-18T12:05:46.860Z,24.50
2022-09-18T12:08:44.160Z,24.50
2022-09-18T12:11:36.638Z,24.52
2022-09-18T12:14:29.588Z,24.55
2022-09-18T12:17:22.144Z,24.58
2022-09-18T12:20:13.356Z,24.56
2022-09-18T12:23:03.076Z,24.59
2022-09-18T12:26:01.293Z,24.59
2022-09-18T12:29:04.382Z,24.64
2022-09-18T12:31:59.911Z,24.67
2022-09-18T12:34:54.957Z,24.71
2022-09-18T12:37:51.397Z,24.72
2022-09-18T12:40:55.505Z,24.76
2022-09-18T12:43:56.862Z,24.74
2022-09-18T12:46:56.126Z,24.74
2022-09-18T12:49:57.937Z,24.76
2022-09-18T12:53:09.148Z,24.80
2022-09-18T12:56:07.331Z,24.81
2022-09-18T12:59:11.806Z,24.81
2022-09-18T13:02:06.163Z,24.86
2022-09-18T13:05:00.022Z,24.86
2022-09-18T13:07:53.199Z,24.88
2022-09-18T13:10:43.887Z,24.89
2022-09-18T13:13:37.712Z,24.94
2022-09-18T13:16:33.586Z,24.87
2022-09-18T13:19:28.188Z,24.90
2022-09-18T13:22:20.059Z,24.89
2022-09-18T13:25:25.567Z,24.84
2022-09-18T13:28:16.327Z,24.84
2022-09-18T13:31:26.424Z,24.88
2022-09-18T13:34:20.730Z,24.88
2022-09-18T13:37:09.465Z,24.86
2022-09-18T13:40:10.258Z,24.86
2022-09-18T13:42:59.468Z,24.88
2022-09-18T13:45:48.214Z,24.83
2022-09-18T13:48:43.123Z,24.86
2022-09-18T13:51:33.190Z,24.85
2022-09-18T13:54:25.058Z,24.87
2022-09-18T13:57:31.184Z,24.99
2022-09-18T14:00:42.433Z,25.09
2022-09-18T14:03:36.717Z,25.03
2022-09-18T14:06:45.354Z,24.73
2022-09-18T14:09:52.123Z,24.62
2022-09-18T14:12:41.977Z,24.47
2022-09-18T14:15:30.574Z,24.26
2022-09-18T14:18:25.449Z,24.17
2022-09-18T14:21:19.514Z,24.12
2022-09-18T14:24:39.132Z,24.02
2022-09-18T14:27:36.777Z,23.89
2022-09-18T14:30:29.114Z,23.91
2022-09-18T14:33:19.635Z,23.99
2022-09-18T14:36:11.750Z,24.07
2022-09-18T14:39:02.573Z,24.17
2022-09-18T14:41:51.346Z,24.08
2022-09-18T14:44:40.066Z,24.10
2022-09-18T14:47:29.838Z,24.17
2022-09-18T14:50:27.511Z,24.20
2022-09-18T14:53:23.621Z,24.25
2022-09-18T14:56:14.132Z,24.33
2022-09-18T14:59:06.057Z,24.30
2022-09-18T15:01:54.577Z,24.32
2022-09-18T15:04:44.447Z,24.36
2022-09-18T15:07:34.960Z,24.38
2022-09-18T15:10:24.482Z,24.41
2022-09-18T15:13:14.151Z,24.47
2022-09-18T15:16:05.135Z,24.49
2022-09-18T15:18:53.667Z,24.50
2022-09-18T15:21:49.325Z,24.53
2022-09-18T15:24:37.830Z,24.56
2022-09-18T15:27:26.395Z,24.56
2022-09-18T15:30:18.679Z,24.55
2022-09-18T15:33:09.567Z,24.58
2022-09-18T15:35:58.324Z,24.62
2022-09-18T15:38:48.898Z,24.64
2022-09-18T15:41:45.583Z,24.66
2022-09-18T15:45:11.046Z,24.67
2022-09-18T15:48:01.287Z,24.69
2022-09-18T15:50:49.834Z,24.68
2022-09-18T15:53:38.611Z,24.69
2022-09-18T15:56:28.777Z,24.71
2022-09-18T15:59:20.593Z,24.76
2022-09-18T16:02:20.751Z,24.78
2022-09-18T16:05:10.194Z,24.84
2022-09-18T16:08:00.340Z,24.82
2022-09-18T16:10:51.099Z,24.85
2022-09-18T16:13:40.960Z,24.87
2022-09-18T16:16:30.787Z,24.90
2022-09-18T16:19:20.161Z,24.92
2022-09-18T16:22:13.831Z,24.90
2022-09-18T16:25:02.291Z,24.88
2022-09-18T16:27:52.124Z,24.88
2022-09-18T16:30:42.666Z,24.88
2022-09-18T16:33:32.533Z,24.91
2022-09-18T16:36:27.449Z,24.89
2022-09-18T16:39:17.388Z,24.92
2022-09-18T16:42:17.869Z,24.88
2022-09-18T16:45:07.526Z,24.92
2022-09-18T16:48:00.570Z,24.95
2022-09-18T16:50:49.494Z,24.94
2022-09-18T16:53:38.230Z,24.94
2022-09-18T16:56:28.948Z,24.93
2022-09-18T16:59:17.550Z,24.97
2022-09-18T17:02:08.816Z,24.97
2022-09-18T17:05:01.560Z,24.94
2022-09-18T17:07:49.968Z,24.98
2022-09-18T17:10:43.164Z,24.98
2022-09-18T17:13:33.455Z,25.00
2022-09-18T17:16:41.275Z,24.99
2022-09-18T17:19:30.845Z,24.98
2022-09-18T17:22:22.690Z,24.99
2022-09-18T17:25:12.101Z,25.01
2022-09-18T17:28:00.804Z,25.00
2022-09-18T17:30:50.782Z,25.02
2022-09-18T17:33:39.644Z,25.03
2022-09-18T17:36:28.213Z,25.06
2022-09-18T17:39:18.059Z,25.04
2022-09-18T17:42:07.362Z,25.07
2022-09-18T17:44:56.722Z,25.07
2022-09-18T17:47:45.211Z,25.07
2022-09-18T17:50:37.978Z,25.07
2022-09-18T17:53:26.723Z,25.04
2022-09-18T17:56:18.260Z,25.04
2022-09-18T17:59:08.109Z,25.04
2022-09-18T18:01:56.602Z,25.06
2022-09-18T18:04:45.098Z,25.04
2022-09-18T18:07:34.850Z,25.08
2022-09-18T18:10:23.319Z,25.09
2022-09-18T18:13:17.144Z,25.11
2022-09-18T18:16:11.708Z,25.13
2022-09-18T18:19:01.403Z,25.14
2022-09-18T18:21:49.996Z,25.15
2022-09-18T18:24:39.476Z,25.15
2022-09-18T18:27:28.182Z,25.16
2022-09-18T18:30:18.809Z,25.18
2022-09-18T18:33:07.285Z,25.18
2022-09-18T18:35:55.737Z,25.19
2022-09-18T18:38:45.912Z,25.25
2022-09-18T18:41:34.723Z,25.28
2022-09-18T18:44:23.352Z,25.31
2022-09-18T18:47:13.539Z,25.44
2022-09-18T18:50:02.229Z,25.49
2022-09-18T18:52:50.997Z,25.57
2022-09-18T18:55:39.479Z,25.67
2022-09-18T18:58:28.191Z,25.65
2022-09-18T19:01:18.881Z,25.64
2022-09-18T19:04:11.039Z,25.55
2022-09-18T19:06:59.503Z,25.54
2022-09-18T19:09:47.965Z,25.56
2022-09-18T19:12:36.384Z,25.54
2022-09-18T19:15:25.402Z,25.54
2022-09-18T19:18:13.939Z,25.57
2022-09-18T19:21:03.983Z,25.63
2022-09-18T19:23:53.428Z,25.65
2022-09-18T19:26:42.788Z,25.62
2022-09-18T19:29:31.552Z,25.62
2022-09-18T19:32:21.026Z,25.64
2022-09-18T19:35:09.641Z,25.66
2022-09-18T19:38:02.205Z,25.64
2022-09-18T19:40:51.272Z,25.64
2022-09-18T19:43:40.907Z,25.60
2022-09-18T19:46:30.964Z,25.60
2022-09-18T19:49:21.516Z,25.61
2022-09-18T19:52:17.920Z,25.58
2022-09-18T19:55:13.676Z,25.55
2022-09-18T19:58:02.904Z,25.59
2022-09-18T20:00:51.624Z,25.62
2022-09-18T20:03:40.493Z,25.59
2022-09-18T20:06:29.245Z,25.57
2022-09-18T20:09:17.725Z,25.55
2022-09-18T20:12:10.226Z,25.48
2022-09-18T20:14:59.260Z,25.51
2022-09-18T20:17:47.872Z,25.58
2022-09-18T20:20:37.687Z,25.57
2022-09-18T20:23:26.083Z,25.52
2022-09-18T20:26:19.515Z,25.50
2022-09-18T20:29:12.000Z,25.48
2022-09-18T20:32:02.891Z,25.47
2022-09-18T20:34:51.359Z,25.41
2022-09-18T20:37:39.824Z,25.42
2022-09-18T20:40:28.484Z,25.42
2022-09-18T20:43:17.870Z,25.46
2022-09-18T20:46:11.480Z,25.44
2022-09-18T20:49:00.710Z,25.41
2022-09-18T20:51:49.062Z,25.44
2022-09-18T20:54:37.583Z,25.41
2022-09-18T20:57:26.026Z,25.42
2022-09-18T21:00:16.217Z,25.46
2022-09-18T21:03:08.600Z,25.48
2022-09-18T21:06:20.937Z,25.44
2022-09-18T21:09:10.129Z,25.39
2022-09-18T21:11:58.663Z,25.39
2022-09-18T21:14:47.837Z,25.38
2022-09-18T21:17:38.444Z,25.51
2022-09-18T21:20:28.285Z,25.69
2022-09-18T21:23:34.623Z,25.75
2022-09-18T21:26:24.344Z,25.88
2022-09-18T21:29:14.555Z,25.93
2022-09-18T21:32:03.386Z,26.08
2022-09-18T21:34:53.539Z,25.99
2022-09-18T21:37:43.441Z,26.03
2022-09-18T21:40:32.464Z,26.13
2022-09-18T21:43:23.639Z,26.21
2022-09-18T21:46:13.958Z,26.28
2022-09-18T21:49:06.730Z,26.10
2022-09-18T21:51:56.689Z,25.91
2022-09-18T21:54:47.541Z,25.77
2022-09-18T21:57:36.857Z,25.72
2022-09-18T22:00:28.066Z,25.63
2022-09-18T22:03:16.944Z,25.57
2022-09-18T22:06:06.014Z,25.50
2022-09-18T22:08:56.421Z,25.46
2022-09-18T22:11:47.593Z,25.46
2022-09-18T22:14:38.158Z,25.44
2022-09-18T22:17:27.344Z,25.43
2022-09-18T22:20:17.523Z,25.42
2022-09-18T22:23:05.951Z,25.39
2022-09-18T22:26:00.085Z,25.39
2022-09-18T22:28:53.387Z,25.39
2022-09-18T22:31:42.209Z,25.38
2022-09-18T22:34:33.400Z,25.37
2022-09-18T22:37:22.353Z,25.37
2022-09-18T22:40:11.699Z,25.37
2022-09-18T22:43:00.165Z,25.33
2022-09-18T22:45:49.944Z,25.33
2022-09-18T22:48:39.046Z,25.34
2022-09-18T22:51:28.581Z,25.35
2022-09-18T22:54:17.372Z,25.35
2022-09-18T22:57:05.805Z,25.31
2022-09-18T22:59:54.184Z,25.29
2022-09-18T23:02:44.030Z,25.29
2022-09-18T23:05:32.522Z,25.27
2022-09-18T23:08:20.919Z,25.29
2022-09-18T23:11:11.558Z,25.25
2022-09-18T23:14:03.106Z,25.26
2022-09-18T23:16:51.953Z,25.28
2022-09-18T23:19:42.172Z,25.28
2022-09-18T23:22:30.937Z,25.25
2022-09-18T23:25:19.401Z,25.22
2022-09-18T23:28:07.833Z,25.23
2022-09-18T23:30:56.250Z,25.25
2022-09-18T23:33:49.569Z,25.21
2022-09-18T23:36:41.047Z,25.18
2022-09-18T23:39:31.539Z,25.21
2022-09-18T23:42:19.933Z,25.20
2022-09-18T23:45:09.540Z,25.16
2022-09-18T23:47:58.003Z,25.13
2022-09-18T23:50:46.383Z,25.11
2022-09-18T23:53:38.168Z,25.13
2022-09-18T23:56:27.188Z,25.11
2022-09-18T23:59:20.694Z,25.13
